Glennville, California
Current Conditions -  °F | °C
As of 10:54 AM on Monday 20 Oct 2014 (Local Time) from KBFL Reporting Station
Clear Clear  
Wind Chill: 69°   Ceiling: Unl
Heat Index: 69°   Visibility: 9mi
Dew Point: 51°   Wind: 6mph
Humidity: 53%   Direction: 230°SW
Pressure: 29.96"   Gusts: NA
Location:  35.73°N, 118.7°W
Report Text: KBFL 201754Z 23005KT 9SM CLR 21/11 A2996 RMK AO2 SLP140 T02060106 10206 20156 50008
Loading
Personal Weather Stations






























Interactive Weather Map
Tropical Storm Tracking
New forecast layout! Learn more

10-Day Weather Forecast

Advertisements
Track Severe Weather on mobile